Time;durP1;ratioP1;P1;durP2;ratioP2;P2;SDS_P1;SDS_P2;PMS_P1;PMS_P2;Temp;Humidity;BMP_temperature;BMP_pressure;BME280_temperature;BME280_humidity;BME280_pressure;Samples;Min_cycle;Max_cycle;Signal;HPM_P1;HPM_P2
2021/04/01 00:01:18;;;;;;;28.35;12.35;;;;;;;;;;8294146;28;20435;-69
2021/04/01 00:05:26;;;;;;;23.40;10.73;;;;;;;;;;8295184;28;20401;-69
2021/04/01 00:09:29;;;;;;;20.88;10.60;;;;;;;;;;8293963;28;20463;-69
2021/04/01 00:13:34;;;;;;;23.52;9.50;;;;;;;;;;8293748;28;20367;-69
2021/04/01 00:17:45;;;;;;;20.30;10.25;;;;;;;;;;8292519;28;20473;-69
2021/04/01 00:21:49;;;;;;;20.48;10.20;;;;;;;;;;8292135;28;20490;-70
2021/04/01 00:25:54;;;;;;;25.50;10.77;;;;;;;;;;8292983;28;20359;-69
2021/04/01 00:29:58;;;;;;;21.45;10.88;;;;;;;;;;8294294;28;20423;-69
2021/04/01 00:34:03;;;;;;;21.67;10.73;;;;;;;;;;8294182;28;20458;-69
2021/04/01 00:38:07;;;;;;;25.02;9.93;;;;;;;;;;8290506;28;20388;-69
2021/04/01 00:42:12;;;;;;;24.55;10.65;;;;;;;;;;8294219;28;20510;-70
2021/04/01 00:46:16;;;;;;;18.55;9.57;;;;;;;;;;8293595;28;20467;-70
2021/04/01 00:50:28;;;;;;;21.35;9.23;;;;;;;;;;8291492;28;20359;-70
2021/04/01 00:54:34;;;;;;;20.42;8.90;;;;;;;;;;8291953;28;20470;-70
2021/04/01 00:58:39;;;;;;;17.23;7.97;;;;;;;;;;8289944;28;20376;-69
2021/04/01 01:02:43;;;;;;;22.17;8.85;;;;;;;;;;8284573;28;20107;-69
2021/04/01 01:06:48;;;;;;;23.35;9.77;;;;;;;;;;8290376;28;20364;-70
2021/04/01 01:10:52;;;;;;;20.92;9.73;;;;;;;;;;8274503;28;20462;-69
2021/04/01 01:14:57;;;;;;;19.92;9.07;;;;;;;;;;8290189;28;20474;-70
2021/04/01 01:19:06;;;;;;;20.50;8.88;;;;;;;;;;8290018;28;20394;-70
2021/04/01 01:23:11;;;;;;;23.65;8.95;;;;;;;;;;8288707;28;20459;-69
2021/04/01 01:27:17;;;;;;;20.33;9.30;;;;;;;;;;8290388;28;20371;-70
2021/04/01 01:31:22;;;;;;;24.77;10.60;;;;;;;;;;8289660;28;20489;-71
2021/04/01 01:35:33;;;;;;;21.85;10.57;;;;;;;;;;8290548;28;20467;-70
2021/04/01 01:39:37;;;;;;;18.33;9.43;;;;;;;;;;8290445;28;20459;-69
2021/04/01 01:43:42;;;;;;;27.05;10.20;;;;;;;;;;8289429;28;20048;-70
2021/04/01 01:47:48;;;;;;;29.85;10.48;;;;;;;;;;8288693;28;20356;-69
2021/04/01 01:51:53;;;;;;;21.30;10.65;;;;;;;;;;8288039;28;20398;-69
2021/04/01 01:55:57;;;;;;;22.13;11.40;;;;;;;;;;8290034;28;20404;-71
2021/04/01 02:00:07;;;;;;;23.90;11.65;;;;;;;;;;8290633;28;20672;-69
2021/04/01 02:04:11;;;;;;;30.25;11.40;;;;;;;;;;8289533;28;20409;-69
2021/04/01 02:08:17;;;;;;;25.17;12.40;;;;;;;;;;8291908;28;20380;-71
2021/04/01 02:12:21;;;;;;;30.63;11.88;;;;;;;;;;8289890;28;20382;-70
2021/04/01 02:16:25;;;;;;;36.00;12.85;;;;;;;;;;8290271;28;20409;-69
2021/04/01 02:20:31;;;;;;;26.33;12.88;;;;;;;;;;8290149;28;20064;-69
2021/04/01 02:24:35;;;;;;;26.85;11.60;;;;;;;;;;8289504;28;20348;-69
2021/04/01 02:28:38;;;;;;;29.13;12.02;;;;;;;;;;8290366;28;20324;-69
2021/04/01 02:32:42;;;;;;;28.33;12.85;;;;;;;;;;8290271;28;20345;-69
2021/04/01 02:36:47;;;;;;;27.88;12.85;;;;;;;;;;8291990;28;20471;-69
2021/04/01 02:40:53;;;;;;;30.98;13.93;;;;;;;;;;8296684;28;20471;-70
2021/04/01 02:44:57;;;;;;;28.08;13.65;;;;;;;;;;8294688;28;20450;-70
2021/04/01 02:49:01;;;;;;;27.75;13.38;;;;;;;;;;8295757;28;20475;-69
2021/04/01 02:53:04;;;;;;;30.90;13.48;;;;;;;;;;8293511;28;20068;-69
2021/04/01 02:57:19;;;;;;;33.05;15.13;;;;;;;;;;8295054;28;20466;-69
2021/04/01 03:01:23;;;;;;;31.75;15.32;;;;;;;;;;8295298;28;20398;-69
2021/04/01 03:05:28;;;;;;;30.00;13.80;;;;;;;;;;8294782;28;20052;-70
2021/04/01 03:09:34;;;;;;;31.73;15.40;;;;;;;;;;8294449;28;20369;-69
2021/04/01 03:13:40;;;;;;;32.45;15.05;;;;;;;;;;8294950;28;20477;-70
2021/04/01 03:17:43;;;;;;;31.40;14.80;;;;;;;;;;8294105;28;20484;-70
2021/04/01 03:21:49;;;;;;;32.40;16.02;;;;;;;;;;8292398;28;20099;-69
2021/04/01 03:25:53;;;;;;;34.97;14.60;;;;;;;;;;8293052;28;20494;-69
2021/04/01 03:30:06;;;;;;;33.47;14.25;;;;;;;;;;8294040;28;20053;-70
2021/04/01 03:34:11;;;;;;;31.20;15.50;;;;;;;;;;8294432;28;20529;-70
2021/04/01 03:38:16;;;;;;;34.10;15.73;;;;;;;;;;8294316;28;20371;-69
2021/04/01 03:42:21;;;;;;;31.48;14.05;;;;;;;;;;8293906;28;20482;-70
2021/04/01 03:46:25;;;;;;;37.83;14.45;;;;;;;;;;8293894;28;20498;-70
2021/04/01 03:50:30;;;;;;;33.92;14.13;;;;;;;;;;8294912;28;20447;-69
2021/04/01 03:54:35;;;;;;;31.80;15.73;;;;;;;;;;8293559;28;20040;-70
2021/04/01 04:03:16;;;;;;;36.03;15.70;;;;;;;;;;8280641;28;20456;-72
2021/04/01 04:11:44;;;;;;;30.08;16.48;;;;;;;;;;8294136;28;20075;-69
2021/04/01 04:15:49;;;;;;;30.48;16.27;;;;;;;;;;8293503;28;20448;-70
2021/04/01 04:19:52;;;;;;;30.90;16.55;;;;;;;;;;8292876;28;20068;-69
2021/04/01 04:23:56;;;;;;;35.67;16.88;;;;;;;;;;8292980;28;20497;-69
2021/04/01 04:28:07;;;;;;;34.90;17.15;;;;;;;;;;8290235;28;20056;-69
2021/04/01 04:32:11;;;;;;;39.67;17.05;;;;;;;;;;8292174;28;20471;-70
2021/04/01 04:36:16;;;;;;;32.33;17.73;;;;;;;;;;8291798;28;20475;-70
2021/04/01 04:40:21;;;;;;;30.85;17.00;;;;;;;;;;8292498;28;20468;-69
2021/04/01 04:44:25;;;;;;;33.38;16.17;;;;;;;;;;8291133;28;20474;-69
2021/04/01 04:48:30;;;;;;;36.17;16.88;;;;;;;;;;8308330;28;20048;-69
2021/04/01 04:52:35;;;;;;;33.42;16.05;;;;;;;;;;8291961;28;20468;-69
2021/04/01 04:56:40;;;;;;;33.72;16.88;;;;;;;;;;8292844;28;20339;-70
2021/04/01 05:01:03;;;;;;;30.30;16.23;;;;;;;;;;8291694;28;20383;-70
2021/04/01 05:05:08;;;;;;;36.78;16.83;;;;;;;;;;8291548;28;20464;-69
2021/04/01 05:09:12;;;;;;;31.52;16.55;;;;;;;;;;8290199;28;20447;-69
2021/04/01 05:13:17;;;;;;;33.05;17.35;;;;;;;;;;8291853;28;20474;-69
2021/04/01 05:17:22;;;;;;;36.88;17.45;;;;;;;;;;8289106;28;20372;-69
2021/04/01 05:21:32;;;;;;;30.42;16.30;;;;;;;;;;8289927;28;20486;-69
2021/04/01 05:25:37;;;;;;;34.13;17.73;;;;;;;;;;8291018;28;20337;-71
2021/04/01 05:29:57;;;;;;;29.20;17.08;;;;;;;;;;8290380;28;20455;-69
2021/04/01 05:34:02;;;;;;;39.25;18.35;;;;;;;;;;8291058;28;20455;-71
2021/04/01 05:38:06;;;;;;;32.40;17.90;;;;;;;;;;8291370;28;20505;-70
2021/04/01 05:42:12;;;;;;;36.53;18.20;;;;;;;;;;8290046;28;20348;-69
2021/04/01 05:46:20;;;;;;;39.40;20.48;;;;;;;;;;8290881;28;20479;-71
2021/04/01 05:50:39;;;;;;;36.05;20.30;;;;;;;;;;8289463;28;20056;-71
2021/04/01 05:59:32;;;;;;;35.22;20.63;;;;;;;;;;8237768;28;20391;-70
2021/04/01 06:03:57;;;;;;;36.97;21.27;;;;;;;;;;8289610;28;20455;-70
2021/04/01 06:08:07;;;;;;;36.67;19.73;;;;;;;;;;8289675;28;20071;-70
2021/04/01 06:12:16;;;;;;;36.75;16.35;;;;;;;;;;8295360;28;20406;-68
2021/04/01 06:16:30;;;;;;;39.72;16.25;;;;;;;;;;8271458;28;20036;-70
2021/04/01 06:20:52;;;;;;;33.85;16.08;;;;;;;;;;8284885;28;20822;-69
2021/04/01 06:25:20;;;;;;;39.08;15.90;;;;;;;;;;8268966;28;20509;-69
2021/04/01 06:30:22;;;;;;;32.83;15.02;;;;;;;;;;8283711;28;20382;-69
2021/04/01 06:34:40;;;;;;;26.23;14.13;;;;;;;;;;8294404;28;20335;-71
2021/04/01 06:38:52;;;;;;;33.38;14.48;;;;;;;;;;8296230;28;20494;-68
2021/04/01 06:43:15;;;;;;;28.98;13.55;;;;;;;;;;8297341;28;20075;-69
2021/04/01 06:47:23;;;;;;;29.42;13.48;;;;;;;;;;8297620;28;20078;-69
2021/04/01 06:51:31;;;;;;;;;;;;;;;;;;8296531;28;20402;-68
2021/04/01 06:55:43;;;;;;;;;;;;;;;;;;8294928;28;20289;-69
2021/04/01 07:00:20;;;;;;;24.73;12.50;;;;;;;;;;8294023;28;20324;-69
2021/04/01 07:04:41;;;;;;;24.55;13.13;;;;;;;;;;8294995;28;20036;-69
2021/04/01 07:08:50;;;;;;;28.40;12.50;;;;;;;;;;8293985;28;20462;-69
2021/04/01 07:12:58;;;;;;;21.67;12.55;;;;;;;;;;8295993;28;20049;-70
2021/04/01 07:17:11;;;;;;;29.52;13.10;;;;;;;;;;8276999;28;20366;-69
2021/04/01 07:34:47;;;;;;;23.63;12.13;;;;;;;;;;8294194;28;20465;-69
2021/04/01 07:47:59;;;;;;;21.42;10.43;;;;;;;;;;8291902;28;20458;-71
2021/04/01 07:52:07;;;;;;;22.10;11.20;;;;;;;;;;8294484;28;20471;-69
2021/04/01 07:56:19;;;;;;;22.48;10.35;;;;;;;;;;8294182;28;20485;-70
2021/04/01 08:00:27;;;;;;;26.67;12.98;;;;;;;;;;8293087;28;20075;-69
2021/04/01 08:04:32;;;;;;;24.67;10.80;;;;;;;;;;8291784;28;20060;-68
2021/04/01 08:08:44;;;;;;;23.63;11.48;;;;;;;;;;8291091;28;20486;-69
2021/04/01 08:12:53;;;;;;;22.65;10.30;;;;;;;;;;8292599;28;20355;-70
2021/04/01 08:17:04;;;;;;;20.50;10.68;;;;;;;;;;8292972;28;20113;-69
2021/04/01 08:21:11;;;;;;;22.90;10.25;;;;;;;;;;8292436;28;20467;-69
2021/04/01 08:25:40;;;;;;;28.00;10.38;;;;;;;;;;8292804;28;20467;-69
2021/04/01 08:34:42;;;;;;;19.85;10.10;;;;;;;;;;8291102;28;20353;-69
2021/04/01 08:39:06;;;;;;;21.13;9.82;;;;;;;;;;8289684;28;20379;-69
2021/04/01 08:44:03;;;;;;;20.27;8.93;;;;;;;;;;8291559;28;20367;-68
2021/04/01 08:48:50;;;;;;;21.33;9.50;;;;;;;;;;8291152;28;20367;-71
2021/04/01 08:53:35;;;;;;;24.83;9.65;;;;;;;;;;8293727;28;20170;-69
2021/04/01 08:58:15;;;;;;;;;;;;;;;;;;8292062;28;20044;-69
2021/04/01 09:02:23;;;;;;;24.65;10.98;;;;;;;;;;8289763;28;20252;-69
2021/04/01 09:06:39;;;;;;;19.98;9.70;;;;;;;;;;8289646;28;20410;-71
2021/04/01 09:10:53;;;;;;;28.33;12.60;;;;;;;;;;8289097;28;20530;-68
2021/04/01 09:15:03;;;;;;;18.08;9.60;;;;;;;;;;8290569;28;20360;-69
2021/04/01 09:19:07;;;;;;;23.77;9.10;;;;;;;;;;8288218;28;20501;-69
2021/04/01 09:23:13;;;;;;;20.80;8.95;;;;;;;;;;8289250;28;20633;-69
2021/04/01 09:27:18;;;;;;;17.80;9.43;;;;;;;;;;8290596;28;20044;-69
2021/04/01 09:31:32;;;;;;;21.30;10.27;;;;;;;;;;8292064;28;20356;-69
2021/04/01 09:35:38;;;;;;;25.08;9.60;;;;;;;;;;8291092;28;20471;-69
2021/04/01 09:39:43;;;;;;;17.88;9.98;;;;;;;;;;8289090;28;20056;-69
2021/04/01 09:43:54;;;;;;;29.80;11.15;;;;;;;;;;8291334;28;20459;-69
2021/04/01 09:48:02;;;;;;;16.55;10.27;;;;;;;;;;8291257;28;20374;-69
2021/04/01 09:52:08;;;;;;;26.38;10.57;;;;;;;;;;8291949;28;20441;-68
2021/04/01 09:56:54;;;;;;;19.27;10.90;;;;;;;;;;8292368;28;20459;-69
2021/04/01 10:01:26;;;;;;;19.58;10.02;;;;;;;;;;8289584;28;20364;-69
2021/04/01 10:05:44;;;;;;;19.15;10.38;;;;;;;;;;8290941;28;20356;-69
2021/04/01 10:09:57;;;;;;;20.35;9.63;;;;;;;;;;8274357;28;20475;-69
2021/04/01 10:14:06;;;;;;;55.60;19.35;;;;;;;;;;8290320;28;20463;-69
2021/04/01 10:18:11;;;;;;;27.92;13.10;;;;;;;;;;8291485;28;20462;-69
2021/04/01 10:22:32;;;;;;;21.20;9.82;;;;;;;;;;8292580;28;20438;-69
2021/04/01 10:26:41;;;;;;;19.50;9.13;;;;;;;;;;8290216;28;20337;-70
2021/04/01 10:30:46;;;;;;;11.40;7.63;;;;;;;;;;8291444;28;20363;-69
2021/04/01 10:35:03;;;;;;;16.95;7.82;;;;;;;;;;8289660;28;20643;-69
2021/04/01 10:39:12;;;;;;;13.95;7.22;;;;;;;;;;8289600;28;20431;-70
2021/04/01 10:43:21;;;;;;;15.05;7.60;;;;;;;;;;8289201;28;20068;-69
2021/04/01 10:48:16;;;;;;;17.33;9.07;;;;;;;;;;8289708;28;20372;-69
2021/04/01 10:52:23;;;;;;;21.27;8.52;;;;;;;;;;8288489;28;20494;-69
2021/04/01 10:56:47;;;;;;;12.93;7.75;;;;;;;;;;8288608;28;20439;-69
2021/04/01 11:00:56;;;;;;;13.25;8.02;;;;;;;;;;8293583;28;20074;-69
2021/04/01 11:05:16;;;;;;;14.57;8.35;;;;;;;;;;8296669;28;20335;-68
2021/04/01 11:09:25;;;;;;;11.88;7.45;;;;;;;;;;8293726;28;20049;-69
2021/04/01 11:13:37;;;;;;;13.32;7.47;;;;;;;;;;8293728;28;20370;-69
2021/04/01 11:17:49;;;;;;;11.90;7.00;;;;;;;;;;8292242;28;20045;-68
2021/04/01 11:21:56;;;;;;;11.73;6.60;;;;;;;;;;8292790;28;20402;-68
2021/04/01 11:26:02;;;;;;;20.95;8.40;;;;;;;;;;8294473;28;20129;-69
2021/04/01 11:30:10;;;;;;;18.25;7.45;;;;;;;;;;8293989;28;20421;-68
2021/04/01 11:34:19;;;;;;;13.82;7.53;;;;;;;;;;8295925;28;20366;-69
2021/04/01 11:38:25;;;;;;;14.05;7.70;;;;;;;;;;8292704;28;20053;-68
2021/04/01 11:42:32;;;;;;;16.20;7.27;;;;;;;;;;8293062;28;20375;-68
2021/04/01 11:46:41;;;;;;;24.38;8.00;;;;;;;;;;8291998;28;20556;-68
2021/04/01 11:50:47;;;;;;;19.17;8.20;;;;;;;;;;8293523;28;20663;-68
2021/04/01 11:54:54;;;;;;;14.13;7.43;;;;;;;;;;8293488;28;20474;-69
2021/04/01 11:59:16;;;;;;;15.38;8.43;;;;;;;;;;8293143;28;20451;-69
2021/04/01 12:03:28;;;;;;;17.42;8.75;;;;;;;;;;8294822;28;20423;-69
2021/04/01 12:07:35;;;;;;;17.17;7.88;;;;;;;;;;8292416;28;20525;-70
2021/04/01 12:11:46;;;;;;;20.17;8.77;;;;;;;;;;8307882;28;20439;-69
2021/04/01 12:15:53;;;;;;;13.93;8.05;;;;;;;;;;8294439;28;20455;-71
2021/04/01 12:20:03;;;;;;;13.00;7.63;;;;;;;;;;8292580;28;20371;-71
2021/04/01 12:24:09;;;;;;;21.17;8.40;;;;;;;;;;8291465;28;20382;-70
2021/04/01 12:28:20;;;;;;;17.58;7.85;;;;;;;;;;8291545;28;20498;-70
2021/04/01 12:32:33;;;;;;;15.13;7.32;;;;;;;;;;8291712;28;20375;-70
2021/04/01 12:36:42;;;;;;;14.07;7.72;;;;;;;;;;8290670;28;20355;-70
2021/04/01 12:40:47;;;;;;;15.75;8.43;;;;;;;;;;8292253;28;20383;-69
2021/04/01 12:44:53;;;;;;;14.60;8.63;;;;;;;;;;8291946;28;20501;-70
2021/04/01 12:49:01;;;;;;;14.90;7.65;;;;;;;;;;8291266;28;20498;-70
2021/04/01 12:53:06;;;;;;;16.77;7.65;;;;;;;;;;8226922;28;20477;-70
2021/04/01 12:57:18;;;;;;;20.80;6.93;;;;;;;;;;8225411;28;20494;-70
2021/04/01 13:01:52;;;;;;;15.02;6.85;;;;;;;;;;8226566;28;20490;-70
2021/04/01 13:06:02;;;;;;;13.07;7.55;;;;;;;;;;8225970;28;20365;-70
2021/04/01 13:10:30;;;;;;;12.88;6.75;;;;;;;;;;8224080;28;20369;-69
2021/04/01 13:14:37;;;;;;;11.63;6.13;;;;;;;;;;8227822;28;20075;-70
2021/04/01 13:18:44;;;;;;;11.10;5.70;;;;;;;;;;8225639;28;20495;-69
2021/04/01 13:23:07;;;;;;;89.10;9.75;;;;;;;;;;8224968;28;20461;-70
2021/04/01 13:27:14;;;;;;;10.38;4.40;;;;;;;;;;8226166;28;20491;-70
2021/04/01 13:31:27;;;;;;;11.37;4.60;;;;;;;;;;8227450;28;20449;-70
2021/04/01 13:35:38;;;;;;;9.38;4.80;;;;;;;;;;8224982;28;20391;-69
2021/04/01 13:39:49;;;;;;;8.13;4.97;;;;;;;;;;8228555;28;20364;-69
2021/04/01 13:43:58;;;;;;;8.90;4.68;;;;;;;;;;8229211;28;20363;-70
2021/04/01 13:48:04;;;;;;;9.45;5.03;;;;;;;;;;8226626;28;20053;-70
2021/04/01 13:52:18;;;;;;;8.93;5.30;;;;;;;;;;8275456;28;20053;-70
2021/04/01 13:56:29;;;;;;;22.40;10.65;;;;;;;;;;8290465;28;20368;-69
2021/04/01 14:00:53;;;;;;;20.63;12.00;;;;;;;;;;8290039;28;20079;-68
2021/04/01 14:09:30;;;;;;;11.38;6.35;;;;;;;;;;8288357;28;20494;-68
2021/04/01 14:13:36;;;;;;;15.68;6.90;;;;;;;;;;8306961;28;20485;-68
2021/04/01 14:17:40;;;;;;;19.75;9.60;;;;;;;;;;8289528;28;20459;-69
2021/04/01 14:21:44;;;;;;;79.00;11.73;;;;;;;;;;8288852;28;20082;-68
2021/04/01 14:25:49;;;;;;;12.73;7.28;;;;;;;;;;8289713;28;20101;-69
2021/04/01 14:29:56;;;;;;;13.10;6.75;;;;;;;;;;8289343;28;20477;-68
2021/04/01 14:34:03;;;;;;;15.18;6.93;;;;;;;;;;8296605;28;20336;-70
2021/04/01 14:38:08;;;;;;;16.60;7.20;;;;;;;;;;8295285;28;20347;-69
2021/04/01 14:42:13;;;;;;;12.45;6.68;;;;;;;;;;8297780;28;20075;-69
2021/04/01 14:46:17;;;;;;;17.33;6.20;;;;;;;;;;8296102;28;20072;-70
2021/04/01 14:50:22;;;;;;;14.82;7.88;;;;;;;;;;8295872;28;20060;-67
2021/04/01 14:54:30;;;;;;;14.88;6.93;;;;;;;;;;8294367;28;20052;-68
2021/04/01 14:58:35;;;;;;;17.45;7.43;;;;;;;;;;8295803;28;20426;-68
2021/04/01 15:02:39;;;;;;;13.98;6.15;;;;;;;;;;8294998;28;20366;-68
2021/04/01 15:06:52;;;;;;;13.90;6.93;;;;;;;;;;8309828;28;20075;-68
2021/04/01 15:11:06;;;;;;;14.40;7.28;;;;;;;;;;8294604;28;20058;-68
2021/04/01 15:15:13;;;;;;;37.10;25.15;;;;;;;;;;8293721;28;20052;-69
2021/04/01 15:19:36;;;;;;;15.98;8.93;;;;;;;;;;8296584;28;20325;-68
2021/04/01 15:23:41;;;;;;;17.60;8.77;;;;;;;;;;8295941;28;20463;-69
2021/04/01 15:27:46;;;;;;;21.20;10.63;;;;;;;;;;8296924;28;20358;-69
2021/04/01 15:31:51;;;;;;;24.42;10.95;;;;;;;;;;8294983;28;20071;-70
2021/04/01 15:35:57;;;;;;;30.55;15.30;;;;;;;;;;8296231;28;20049;-69
2021/04/01 15:40:04;;;;;;;28.70;12.30;;;;;;;;;;8295538;28;20045;-69
2021/04/01 15:44:09;;;;;;;32.42;14.48;;;;;;;;;;8293440;28;20372;-69
2021/04/01 15:48:14;;;;;;;42.17;16.58;;;;;;;;;;8294786;28;20473;-69
2021/04/01 15:52:19;;;;;;;31.55;14.27;;;;;;;;;;8294604;28;20471;-69
2021/04/01 15:56:24;;;;;;;43.90;22.15;;;;;;;;;;8297152;28;20440;-69
2021/04/01 16:00:29;;;;;;;42.78;22.00;;;;;;;;;;8292918;28;20474;-72
2021/04/01 16:04:34;;;;;;;36.75;16.35;;;;;;;;;;8292527;28;20073;-70
2021/04/01 16:08:39;;;;;;;68.25;36.42;;;;;;;;;;8292834;28;20048;-69
2021/04/01 16:12:43;;;;;;;50.75;26.52;;;;;;;;;;8291963;28;20359;-69
2021/04/01 16:16:48;;;;;;;27.35;14.43;;;;;;;;;;8293273;28;20370;-68
2021/04/01 16:20:53;;;;;;;37.53;15.20;;;;;;;;;;8291647;28;20395;-69
2021/04/01 16:24:58;;;;;;;46.05;19.02;;;;;;;;;;8292461;28;20057;-68
2021/04/01 16:29:04;;;;;;;38.08;16.15;;;;;;;;;;8293808;28;20371;-68
2021/04/01 16:33:13;;;;;;;40.30;25.52;;;;;;;;;;8292828;28;20337;-68
2021/04/01 16:37:20;;;;;;;28.08;13.48;;;;;;;;;;8293025;28;20435;-69
2021/04/01 16:41:25;;;;;;;36.88;18.10;;;;;;;;;;8292261;28;20101;-71
2021/04/01 16:45:30;;;;;;;29.48;11.70;;;;;;;;;;8292585;28;20479;-69
2021/04/01 16:49:35;;;;;;;26.20;13.68;;;;;;;;;;8290861;28;20479;-69
2021/04/01 16:53:52;;;;;;;34.60;18.58;;;;;;;;;;8290824;28;20048;-69
2021/04/01 16:57:58;;;;;;;27.38;12.57;;;;;;;;;;8291603;28;20074;-70
2021/04/01 17:02:03;;;;;;;29.52;13.77;;;;;;;;;;8291555;28;20464;-70
2021/04/01 17:06:08;;;;;;;28.15;14.02;;;;;;;;;;8290486;28;20066;-69
2021/04/01 17:10:13;;;;;;;52.05;22.20;;;;;;;;;;8290619;28;20049;-69
2021/04/01 17:14:16;;;;;;;37.72;15.75;;;;;;;;;;8291040;28;20490;-69
2021/04/01 17:18:31;;;;;;;38.08;17.42;;;;;;;;;;8291098;28;20380;-69
2021/04/01 17:22:35;;;;;;;32.45;15.48;;;;;;;;;;8288427;28;20056;-69
2021/04/01 17:26:41;;;;;;;107.40;47.55;;;;;;;;;;8289899;28;20475;-70
2021/04/01 17:30:46;;;;;;;137.02;63.03;;;;;;;;;;8289169;28;20478;-69
2021/04/01 17:34:51;;;;;;;207.80;95.38;;;;;;;;;;8292418;28;20470;-69
2021/04/01 17:38:59;;;;;;;237.35;112.55;;;;;;;;;;8289881;28;20396;-70
2021/04/01 17:43:04;;;;;;;128.93;58.65;;;;;;;;;;8289841;28;20467;-70
2021/04/01 17:47:09;;;;;;;63.95;31.77;;;;;;;;;;8289167;28;20470;-69
2021/04/01 17:51:14;;;;;;;43.38;21.70;;;;;;;;;;8304092;28;20343;-69
2021/04/01 17:55:22;;;;;;;35.80;18.00;;;;;;;;;;8288753;28;20460;-69
2021/04/01 17:59:31;;;;;;;82.45;34.60;;;;;;;;;;8291026;28;20494;-69
2021/04/01 18:25:33;;;;;;;112.18;40.67;;;;;;;;;;8289562;28;20495;-69
2021/04/01 18:29:38;;;;;;;159.30;70.30;;;;;;;;;;8289531;28;20484;-69
2021/04/01 18:33:49;;;;;;;126.90;51.80;;;;;;;;;;8289163;28;20389;-69
2021/04/01 18:37:56;;;;;;;102.80;37.10;;;;;;;;;;8289137;28;20407;-70
2021/04/01 18:42:07;;;;;;;77.53;29.65;;;;;;;;;;8289019;28;20481;-69
2021/04/01 18:46:17;;;;;;;70.15;29.42;;;;;;;;;;8290203;28;20044;-69
2021/04/01 18:50:22;;;;;;;;;;;;;;;;;;8289307;28;20044;-69
2021/04/01 18:54:30;;;;;;;43.20;17.40;;;;;;;;;;8288365;28;20357;-69
2021/04/01 18:58:40;;;;;;;;;;;;;;;;;;8289809;28;20383;-69
2021/04/01 19:02:45;;;;;;;36.08;15.95;;;;;;;;;;8288241;28;20330;-68
2021/04/01 19:06:58;;;;;;;42.22;16.67;;;;;;;;;;8302671;28;20501;-71
2021/04/01 19:21:05;;;;;;;54.85;19.67;;;;;;;;;;8294878;28;20053;-69
2021/04/01 19:25:13;;;;;;;45.55;18.08;;;;;;;;;;8294537;28;20486;-68
2021/04/01 19:29:19;;;;;;;42.38;17.73;;;;;;;;;;8276806;28;20427;-69
2021/04/01 19:33:24;;;;;;;38.65;14.93;;;;;;;;;;8293286;28;20347;-68
2021/04/01 19:37:33;;;;;;;34.42;13.57;;;;;;;;;;8292288;28;20350;-70
2021/04/01 19:41:43;;;;;;;31.73;13.30;;;;;;;;;;8276768;28;20115;-70
2021/04/01 19:46:03;;;;;;;30.75;11.52;;;;;;;;;;8278028;28;20793;-71
2021/04/01 19:50:20;;;;;;;29.88;12.10;;;;;;;;;;8293933;28;20487;-70
2021/04/01 19:54:28;;;;;;;28.10;12.02;;;;;;;;;;8293081;28;20497;-70
2021/04/01 19:58:33;;;;;;;26.20;11.10;;;;;;;;;;8293856;28;20379;-69
2021/04/01 20:02:39;;;;;;;26.55;12.30;;;;;;;;;;8292824;28;20382;-70
2021/04/01 20:06:45;;;;;;;29.77;12.75;;;;;;;;;;8290699;28;20355;-69
2021/04/01 20:10:49;;;;;;;22.15;11.05;;;;;;;;;;8291281;28;20367;-69
2021/04/01 20:14:55;;;;;;;30.70;12.27;;;;;;;;;;8291977;28;20349;-69
2021/04/01 20:19:04;;;;;;;26.35;11.43;;;;;;;;;;8292559;28;20071;-70
2021/04/01 20:23:10;;;;;;;28.10;11.82;;;;;;;;;;8290905;28;20378;-69
2021/04/01 20:27:15;;;;;;;70.13;25.08;;;;;;;;;;8292805;28;20352;-69
2021/04/01 20:31:20;;;;;;;72.45;26.95;;;;;;;;;;8291687;28;20074;-70
2021/04/01 20:35:25;;;;;;;80.97;37.15;;;;;;;;;;8293650;28;20071;-75
2021/04/01 20:39:30;;;;;;;114.47;60.50;;;;;;;;;;8292549;28;20362;-68
2021/04/01 20:43:37;;;;;;;70.88;36.38;;;;;;;;;;8293965;28;20052;-68
2021/04/01 20:47:42;;;;;;;62.97;30.58;;;;;;;;;;8294629;28;20383;-69
2021/04/01 20:51:47;;;;;;;74.40;28.20;;;;;;;;;;8292499;28;20454;-70
2021/04/01 20:55:54;;;;;;;36.38;15.55;;;;;;;;;;8291958;28;20071;-70
2021/04/01 20:59:58;;;;;;;31.45;15.23;;;;;;;;;;8293584;28;20473;-68
2021/04/01 21:04:02;;;;;;;28.52;11.90;;;;;;;;;;8291332;28;20382;-70
2021/04/01 21:08:12;;;;;;;25.60;11.40;;;;;;;;;;8291251;28;20378;-71
2021/04/01 21:12:16;;;;;;;30.27;11.25;;;;;;;;;;8291416;28;20060;-70
2021/04/01 21:16:22;;;;;;;25.33;10.82;;;;;;;;;;8290317;28;20379;-70
2021/04/01 21:20:27;;;;;;;26.77;11.07;;;;;;;;;;8289221;28;20360;-70
2021/04/01 21:24:32;;;;;;;21.20;10.02;;;;;;;;;;8291057;28;20459;-70
2021/04/01 21:28:39;;;;;;;20.52;10.32;;;;;;;;;;8293474;28;20062;-70
2021/04/01 21:32:43;;;;;;;20.10;10.10;;;;;;;;;;8289726;28;20456;-70
2021/04/01 21:36:47;;;;;;;20.45;9.60;;;;;;;;;;8273355;28;20448;-70
2021/04/01 21:40:52;;;;;;;19.27;10.52;;;;;;;;;;8289893;28;20386;-70
2021/04/01 21:45:00;;;;;;;23.40;10.73;;;;;;;;;;8292280;28;20463;-70
2021/04/01 21:49:08;;;;;;;24.08;9.57;;;;;;;;;;8290205;28;20455;-70
2021/04/01 21:53:14;;;;;;;19.80;9.07;;;;;;;;;;8291108;28;20463;-70
2021/04/01 21:57:19;;;;;;;25.42;10.65;;;;;;;;;;8305145;28;20371;-72
2021/04/01 22:01:23;;;;;;;24.15;10.65;;;;;;;;;;8288908;28;20473;-70
2021/04/01 22:05:30;;;;;;;22.13;9.88;;;;;;;;;;8290027;28;20052;-70
2021/04/01 22:09:34;;;;;;;21.75;9.38;;;;;;;;;;8289638;28;20457;-70
2021/04/01 22:13:39;;;;;;;17.92;8.98;;;;;;;;;;8290998;28;20347;-70
2021/04/01 22:17:47;;;;;;;21.08;10.32;;;;;;;;;;8289350;28;20359;-70
2021/04/01 22:21:51;;;;;;;23.23;10.35;;;;;;;;;;8290276;28;20485;-70
2021/04/01 22:25:57;;;;;;;18.80;9.05;;;;;;;;;;8288904;28;20421;-70
2021/04/01 22:30:17;;;;;;;20.65;9.13;;;;;;;;;;8288672;28;20399;-70
2021/04/01 22:34:22;;;;;;;24.00;10.30;;;;;;;;;;8289733;28;20486;-70
2021/04/01 22:38:47;;;;;;;21.13;8.60;;;;;;;;;;8289406;28;20386;-71
2021/04/01 22:42:53;;;;;;;19.35;8.18;;;;;;;;;;8304163;28;20040;-71
2021/04/01 22:46:57;;;;;;;22.55;8.25;;;;;;;;;;8290021;28;20490;-71
2021/04/01 22:51:04;;;;;;;24.02;8.75;;;;;;;;;;8289065;28;20348;-69
2021/04/01 22:55:12;;;;;;;20.65;8.73;;;;;;;;;;8310110;28;20355;-68
2021/04/01 22:59:16;;;;;;;21.40;8.95;;;;;;;;;;8297229;28;20052;-69
2021/04/01 23:03:24;;;;;;;21.35;9.32;;;;;;;;;;8295801;28;20363;-68
2021/04/01 23:07:28;;;;;;;22.08;8.85;;;;;;;;;;8296481;28;20474;-69
2021/04/01 23:11:33;;;;;;;23.05;8.90;;;;;;;;;;8294059;28;20494;-69
2021/04/01 23:15:43;;;;;;;20.65;9.23;;;;;;;;;;8294917;28;20052;-68
2021/04/01 23:19:47;;;;;;;19.55;8.65;;;;;;;;;;8294010;28;20478;-68
2021/04/01 23:23:52;;;;;;;20.33;8.25;;;;;;;;;;8295411;28;20048;-69
2021/04/01 23:27:58;;;;;;;25.85;9.02;;;;;;;;;;8294807;28;20045;-68
2021/04/01 23:32:04;;;;;;;26.02;10.60;;;;;;;;;;8292992;28;20410;-68
2021/04/01 23:36:09;;;;;;;38.13;13.80;;;;;;;;;;8295538;28;20332;-69
2021/04/01 23:40:15;;;;;;;45.92;17.30;;;;;;;;;;8295061;28;20337;-68
2021/04/01 23:44:19;;;;;;;40.35;14.35;;;;;;;;;;8294512;28;20075;-69
2021/04/01 23:48:24;;;;;;;25.88;11.18;;;;;;;;;;8291962;28;20471;-70
2021/04/01 23:52:29;;;;;;;76.70;24.58;;;;;;;;;;8291893;28;20070;-70
2021/04/01 23:56:34;;;;;;;51.03;15.38;;;;;;;;;;8294468;28;20401;-70
